Green Bay, WI

12:46 PM CDT on April 30, 2017 (GMT -0500)
Titletown | | Change Station

Elev 715 ft 44.51 °N, 88.11 °W | Updated 14 seconds ago

Light Rain
Light Rain Mist
39.9 °F
Feels Like 40 °F
N
2.9
Wind Variable Wind from North
Gusts 4.9 mph

Today
High -- | Low -- °F
--% Chance of Precip.
Yesterday
High -- | Low -- °F
Precip. -- in
Pressure 30.03 in
Visibility 1.8 miles
Clouds Overcast 600 ft
Windchill 40 °F
Dew Point 40 °F
Humidity 99%
Rainfall 0.07 in
Snow Depth Not available.
5:43 AM 7:56 PM
Waxing Crescent, 24% visible
SPECI KGRB 301716Z 03015KT 1 3/4SM -RA BR OVC006 05/04 A3003 RMK AO2 RAB15 P0000 T00500044
Pressure 30.03 in
Visibility 1.8 miles
Clouds Overcast 600 ft
Windchill 40 °F
Dew Point 40 °F
Humidity 99%
Rainfall 0.07 in
Snow Depth Not available.
5:43 AM 7:56 PM
Waxing Crescent, 24% visible
SPECI KGRB 301716Z 03015KT 1 3/4SM -RA BR OVC006 05/04 A3003 RMK AO2 RAB15 P0000 T00500044

Get Severe Weather Alerts

Thanks for signing up!

Be on the lookout for a verification email in your inbox.

You'll start receiving the daily forecast at 8 AM.

×

10-Day Weather Forecast

Almanac

Astronomy

Apr. 30, 2017 Rise Set
Actual Time
Civil Twilight
Nautical Twilight
Astronomical Twilight
Moon
Length of Visible Light
Length of Day
Tomorrow will be .
, % of the Moon is Illuminated

Today's Extremes

State Highs State Lows

Community

WunderPhotos

WunderBlog® & News

Nearby

Air Quality

  Air Quality AQ Index Pollutant
Not available.

Snow Depth

Station Depth Elevation

Earthquake Activity

City Distance Mag. Time & Date
Minimum magnitude displayed is 2.5.

Coastal Water Temperatures

Place Temperature

Stations

Nearby Weather Stations

Station Location Temp. Windchill Dew Point Humidity Wind Precip. Elev Updated Type
                   

Watches & Warnings

There are currently no watches in effect.